Time;durP1;ratioP1;P1;durP2;ratioP2;P2;SDS_P1;SDS_P2;PMS_P1;PMS_P2;Temp;Humidity;BMP_temperature;BMP_pressure;BME280_temperature;BME280_humidity;BME280_pressure;Samples;Min_cycle;Max_cycle;Signal;HPM_P1;HPM_P2
2023/06/24 00:01:13;;;;;;;6.88;3.33;;;;;;;22.13;95.20;100542.22;5080330;28;20032;-67
2023/06/24 00:03:39;;;;;;;5.47;3.05;;;;;;;22.12;95.90;100526.88;5074520;28;20027;-67
2023/06/24 00:06:04;;;;;;;5.97;3.30;;;;;;;22.06;95.76;100502.25;5065307;28;20050;-66
2023/06/24 00:08:34;;;;;;;6.15;3.58;;;;;;;22.13;95.22;100509.44;5080436;28;20079;-67
2023/06/24 00:11:03;;;;;;;5.38;3.10;;;;;;;22.12;94.89;100509.66;5076705;28;20047;-67
2023/06/24 00:13:28;;;;;;;4.20;2.83;;;;;;;22.11;93.73;100497.88;5071028;28;20035;-68
2023/06/24 00:15:54;;;;;;;3.42;2.83;;;;;;;22.15;93.30;100511.94;5079882;28;20044;-66
2023/06/24 00:18:20;;;;;;;4.65;3.20;;;;;;;22.15;92.88;100510.06;5070759;28;20550;-67
2023/06/24 00:20:45;;;;;;;6.07;3.63;;;;;;;22.10;93.34;100503.53;5071609;28;20035;-67
2023/06/24 00:23:17;;;;;;;4.43;2.97;;;;;;;22.16;93.74;100519.94;5082031;28;20040;-67
2023/06/24 00:25:42;;;;;;;4.55;2.55;;;;;;;22.14;93.54;100524.78;5076583;28;20060;-68
2023/06/24 00:28:08;;;;;;;7.20;3.10;;;;;;;22.15;93.13;100521.00;5081491;28;20021;-67
2023/06/24 00:30:33;;;;;;;5.22;2.75;;;;;;;22.19;92.68;100526.91;5077317;28;20443;-67
2023/06/24 00:32:58;;;;;;;4.05;2.92;;;;;;;22.18;92.58;100522.47;5068626;28;20036;-66
2023/06/24 00:35:24;;;;;;;3.90;2.75;;;;;;;22.20;92.68;100532.16;5068866;28;20025;-68
2023/06/24 00:37:49;;;;;;;3.97;3.20;;;;;;;22.22;92.70;100524.59;5080419;28;20028;-68
2023/06/24 00:40:15;;;;;;;4.22;3.30;;;;;;;22.13;92.58;100498.50;5066075;28;20017;-67
2023/06/24 00:42:42;;;;;;;8.30;3.33;;;;;;;22.24;92.92;100514.31;5065566;28;20423;-67
2023/06/24 00:45:09;;;;;;;5.10;3.63;;;;;;;22.25;93.29;100505.03;5071246;28;20114;-66
2023/06/24 00:47:35;;;;;;;5.38;3.53;;;;;;;22.17;93.46;100490.72;5088135;28;20028;-66
2023/06/24 00:50:01;;;;;;;4.35;3.65;;;;;;;22.18;93.34;100486.94;5078078;28;20044;-67
2023/06/24 00:52:26;;;;;;;5.43;3.33;;;;;;;22.22;93.55;100486.31;5076226;28;20020;-67
2023/06/24 00:54:52;;;;;;;5.75;3.42;;;;;;;22.10;93.72;100468.00;5084238;28;20020;-68
2023/06/24 00:57:24;;;;;;;4.47;3.78;;;;;;;22.15;94.27;100466.34;5085997;28;20508;-68
2023/06/24 00:59:53;;;;;;;4.22;3.17;;;;;;;22.17;94.06;100449.75;5083553;28;20089;-67
2023/06/24 01:02:27;;;;;;;6.22;3.67;;;;;;;22.14;94.13;100444.69;5089442;28;20086;-67
2023/06/24 01:04:53;;;;;;;4.95;3.97;;;;;;;22.08;94.60;100437.31;5089024;28;20492;-67
2023/06/24 01:07:19;;;;;;;5.40;3.85;;;;;;;22.04;95.36;100433.31;5082707;28;20115;-67
2023/06/24 01:09:45;;;;;;;6.63;3.70;;;;;;;22.04;95.34;100436.91;5076385;28;20071;-67
2023/06/24 01:12:10;;;;;;;6.88;3.97;;;;;;;21.97;95.68;100416.91;5079971;28;20055;-67
2023/06/24 01:14:36;;;;;;;4.72;3.17;;;;;;;22.04;95.52;100423.25;5061708;28;20032;-67
2023/06/24 01:17:28;;;;;;;7.78;3.42;;;;;;;22.05;95.40;100419.44;5068968;28;20501;-68
2023/06/24 01:20:13;;;;;;;6.90;3.97;;;;;;;21.94;95.39;100386.44;5050459;28;20422;-67
2023/06/24 01:22:46;;;;;;;;;;;;;;;22.00;96.56;100410.19;5087517;28;20028;-66
2023/06/24 01:25:17;;;;;;;6.63;3.78;;;;;;;21.97;96.66;100400.53;5076118;28;19972;-67
2023/06/24 01:28:02;;;;;;;5.55;4.20;;;;;;;21.95;96.12;100409.97;5081448;28;20028;-67
2023/06/24 01:30:54;;;;;;;7.13;4.53;;;;;;;21.95;95.87;100415.41;5083315;28;20027;-67
2023/06/24 01:33:48;;;;;;;8.38;4.03;;;;;;;21.96;95.58;100420.69;5053494;28;20071;-67
2023/06/24 01:36:17;;;;;;;8.33;4.00;;;;;;;21.85;95.63;100398.59;5085421;28;20036;-66
2023/06/24 01:38:51;;;;;;;7.35;4.18;;;;;;;21.93;95.66;100407.44;5073017;28;20273;-68
2023/06/24 01:41:24;;;;;;;6.88;4.60;;;;;;;21.95;95.25;100416.28;5068747;28;20699;-67
2023/06/24 01:43:52;;;;;;;7.80;4.80;;;;;;;21.91;95.44;100405.97;5068262;28;20452;-66
2023/06/24 01:46:21;;;;;;;7.10;4.57;;;;;;;21.88;95.65;100407.22;5084335;28;20115;-66
2023/06/24 01:48:51;;;;;;;9.43;4.97;;;;;;;21.78;95.95;100395.00;5074537;28;20127;-66
2023/06/24 01:51:19;;;;;;;6.88;4.65;;;;;;;21.86;96.58;100403.00;5075644;28;20032;-66
2023/06/24 01:53:51;;;;;;;6.18;4.93;;;;;;;21.80;96.57;100388.28;5074936;28;20544;-67
2023/06/24 01:56:18;;;;;;;5.40;4.47;;;;;;;21.72;97.31;100372.06;5087756;28;20078;-68
2023/06/24 01:58:45;;;;;;;7.97;5.07;;;;;;;21.70;97.36;100367.84;5074852;28;20114;-67
2023/06/24 02:01:12;;;;;;;4.97;4.47;;;;;;;21.76;96.97;100389.72;5088163;28;20031;-67
2023/06/24 02:03:39;;;;;;;9.98;5.15;;;;;;;21.69;96.60;100377.06;5072126;28;20063;-67
2023/06/24 02:06:06;;;;;;;6.95;4.88;;;;;;;21.74;97.11;100388.25;5073910;28;20021;-66
2023/06/24 02:08:35;;;;;;;6.75;5.13;;;;;;;21.59;97.31;100368.41;5058109;28;20024;-66
2023/06/24 02:11:02;;;;;;;6.75;5.28;;;;;;;21.69;97.48;100393.44;5069654;28;20032;-66
2023/06/24 02:13:31;;;;;;;7.97;5.18;;;;;;;21.70;96.96;100400.63;5070532;28;20043;-66
2023/06/24 02:15:58;;;;;;;7.55;4.45;;;;;;;21.71;96.73;100396.81;5065215;28;20101;-67
2023/06/24 02:18:24;;;;;;;8.23;5.07;;;;;;;21.67;96.44;100393.66;5085241;28;21289;-67
2023/06/24 02:20:50;;;;;;;5.35;4.57;;;;;;;21.72;96.00;100393.91;5068043;28;20028;-67
2023/06/24 02:23:16;;;;;;;6.68;4.60;;;;;;;21.67;95.90;100392.81;5070086;28;20028;-67
2023/06/24 02:25:42;;;;;;;6.03;5.10;;;;;;;21.62;95.83;100385.25;5087627;28;20051;-66
2023/06/24 02:28:09;;;;;;;9.60;5.55;;;;;;;21.59;95.78;100377.47;5081118;28;20082;-66
2023/06/24 02:30:36;;;;;;;5.97;4.95;;;;;;;21.67;95.98;100390.09;5073073;28;20056;-67
2023/06/24 02:33:02;;;;;;;7.32;5.03;;;;;;;21.65;96.14;100403.94;5070353;28;20043;-66
2023/06/24 02:35:27;;;;;;;7.15;5.63;;;;;;;21.64;95.99;100426.81;5078013;28;20380;-66
2023/06/24 02:37:53;;;;;;;9.32;4.93;;;;;;;21.64;95.90;100445.09;5071097;28;20071;-66
2023/06/24 02:40:19;;;;;;;6.65;5.13;;;;;;;21.52;96.49;100430.34;5071556;28;20047;-66
2023/06/24 02:42:44;;;;;;;5.63;5.00;;;;;;;21.59;96.47;100437.53;5073766;28;20040;-66
2023/06/24 02:45:11;;;;;;;7.63;5.43;;;;;;;21.51;96.16;100423.19;5086781;28;20051;-66
2023/06/24 02:47:37;;;;;;;8.88;5.30;;;;;;;21.56;96.18;100421.53;5078081;28;20044;-66
2023/06/24 02:50:05;;;;;;;6.82;4.90;;;;;;;21.54;95.96;100412.69;5070214;28;22141;-65
2023/06/24 02:52:31;;;;;;;6.55;4.57;;;;;;;21.51;96.47;100402.19;5080730;28;20021;-65
2023/06/24 02:54:58;;;;;;;8.55;5.57;;;;;;;21.49;96.73;100408.91;5086305;28;20059;-66
2023/06/24 02:57:25;;;;;;;9.27;5.43;;;;;;;21.41;96.76;100409.09;5084495;28;20028;-66
2023/06/24 02:59:51;;;;;;;8.60;5.55;;;;;;;21.47;96.44;100430.94;5067313;28;20078;-67
2023/06/24 03:02:17;;;;;;;7.70;5.18;;;;;;;21.47;96.20;100425.47;5075268;28;20024;-66
2023/06/24 03:04:43;;;;;;;12.00;5.88;;;;;;;21.40;95.99;100407.38;5082867;28;20031;-67
2023/06/24 03:07:10;;;;;;;7.85;6.05;;;;;;;21.46;96.06;100420.22;5078794;28;20033;-67
2023/06/24 03:09:36;;;;;;;10.10;6.45;;;;;;;21.45;95.56;100429.47;5078787;28;20119;-66
2023/06/24 03:12:01;;;;;;;7.53;6.10;;;;;;;21.41;95.65;100434.47;5055416;28;20221;-66
2023/06/24 03:14:27;;;;;;;10.00;6.60;;;;;;;21.39;95.84;100441.19;5078583;28;20028;-66
2023/06/24 03:16:52;;;;;;;9.10;6.35;;;;;;;21.40;95.78;100446.44;5053001;28;20136;-66
2023/06/24 03:19:18;;;;;;;10.02;6.30;;;;;;;21.39;96.01;100449.38;5077476;28;20401;-66
2023/06/24 03:21:43;;;;;;;10.77;6.97;;;;;;;21.36;96.08;100453.34;5074858;28;20479;-67
2023/06/24 03:24:08;;;;;;;10.02;6.60;;;;;;;21.33;96.21;100458.34;5069203;28;20097;-68
2023/06/24 03:26:35;;;;;;;8.77;7.30;;;;;;;21.32;96.29;100459.41;5075665;28;20458;-67
2023/06/24 03:29:01;;;;;;;8.90;6.50;;;;;;;21.27;96.13;100457.28;5074506;28;20033;-67
2023/06/24 03:31:27;;;;;;;8.02;6.38;;;;;;;21.30;96.25;100458.75;5053447;28;20035;-67
2023/06/24 03:33:52;;;;;;;14.20;6.70;;;;;;;21.29;96.36;100454.34;5075037;28;20032;-67
2023/06/24 03:36:17;;;;;;;9.05;7.00;;;;;;;21.19;96.30;100446.53;5077654;28;20021;-67
2023/06/24 03:38:43;;;;;;;7.53;6.57;;;;;;;21.27;96.49;100456.41;5074309;28;20119;-66
2023/06/24 03:41:08;;;;;;;10.13;6.93;;;;;;;21.23;96.71;100460.59;5074283;28;20082;-67
2023/06/24 03:43:34;;;;;;;10.23;6.88;;;;;;;21.24;97.00;100470.47;5075156;28;20032;-68
2023/06/24 03:46:00;;;;;;;11.70;7.38;;;;;;;21.21;97.15;100476.31;5072170;28;20058;-67
2023/06/24 03:48:26;;;;;;;9.10;8.02;;;;;;;21.15;97.50;100471.69;5082178;28;20498;-66
2023/06/24 03:50:51;;;;;;;9.02;7.15;;;;;;;21.21;96.90;100468.13;5078867;28;20024;-66
2023/06/24 03:53:16;;;;;;;11.20;6.72;;;;;;;21.20;96.79;100480.09;5069257;28;20027;-68
2023/06/24 03:55:42;;;;;;;10.52;7.32;;;;;;;21.13;96.76;100480.06;5057882;28;20024;-67
2023/06/24 03:58:08;;;;;;;8.40;7.60;;;;;;;21.19;96.86;100498.38;5061595;28;20040;-67
2023/06/24 04:00:33;;;;;;;8.52;7.15;;;;;;;21.21;97.11;100498.13;5077238;28;20021;-68
2023/06/24 04:03:00;;;;;;;8.35;7.30;;;;;;;21.21;97.15;100489.97;5074567;28;20064;-67
2023/06/24 04:05:26;;;;;;;8.18;6.97;;;;;;;21.21;96.78;100493.53;5071716;28;20028;-67
2023/06/24 04:07:52;;;;;;;10.00;6.55;;;;;;;21.17;96.61;100485.94;5059139;28;20028;-67
2023/06/24 04:10:18;;;;;;;12.32;7.00;;;;;;;21.20;96.55;100491.00;5071647;28;20100;-67
2023/06/24 04:12:44;;;;;;;10.48;7.18;;;;;;;21.27;95.83;100498.19;5083156;28;20036;-66
2023/06/24 04:15:09;;;;;;;8.48;6.38;;;;;;;21.30;95.34;100497.81;5079593;28;20407;-68
2023/06/24 04:17:35;;;;;;;8.02;6.47;;;;;;;21.34;94.55;100499.09;5081648;28;20024;-68
2023/06/24 04:20:03;;;;;;;7.93;6.50;;;;;;;21.40;93.75;100509.22;5079238;28;20021;-68
2023/06/24 04:22:28;;;;;;;6.97;6.05;;;;;;;21.42;92.99;100511.75;5078531;28;20081;-66
2023/06/24 04:24:54;;;;;;;11.45;7.00;;;;;;;21.39;92.32;100501.22;5075792;28;20845;-68
2023/06/24 04:27:19;;;;;;;8.32;6.28;;;;;;;21.47;91.96;100517.47;5080241;28;20043;-68
2023/06/24 04:29:44;;;;;;;6.97;5.95;;;;;;;21.50;92.34;100534.25;5077281;28;20031;-68
2023/06/24 04:32:10;;;;;;;12.35;5.72;;;;;;;21.52;91.50;100537.66;5076912;28;20024;-66
2023/06/24 04:34:35;;;;;;;7.75;5.43;;;;;;;21.51;91.00;100522.28;5081763;28;20036;-69
2023/06/24 04:37:00;;;;;;;6.63;5.25;;;;;;;21.49;90.35;100524.41;5078372;28;20036;-67
2023/06/24 04:39:26;;;;;;;6.20;5.50;;;;;;;21.53;90.35;100531.13;5073704;28;20196;-67
2023/06/24 04:41:51;;;;;;;10.18;5.53;;;;;;;21.56;90.21;100527.16;5079303;28;20031;-68
2023/06/24 04:44:17;;;;;;;5.53;5.03;;;;;;;21.43;90.46;100519.72;5079480;28;20115;-68
2023/06/24 04:46:42;;;;;;;9.52;5.53;;;;;;;21.56;90.41;100546.25;5069640;28;20016;-66
2023/06/24 04:49:08;;;;;;;7.38;4.95;;;;;;;21.56;90.27;100536.19;5069629;28;20037;-67
2023/06/24 04:51:33;;;;;;;7.15;5.43;;;;;;;21.61;90.22;100533.69;5079722;28;20025;-67
2023/06/24 04:53:59;;;;;;;5.63;4.93;;;;;;;21.62;90.70;100532.66;5076271;28;20112;-67
2023/06/24 04:56:25;;;;;;;8.00;5.72;;;;;;;21.70;89.48;100537.97;5086121;28;20028;-67
2023/06/24 04:58:51;;;;;;;7.97;5.43;;;;;;;21.65;88.89;100528.69;5079846;28;20422;-67
2023/06/24 05:01:17;;;;;;;6.78;4.72;;;;;;;21.72;88.13;100540.50;5077779;28;20089;-67
2023/06/24 05:03:43;;;;;;;7.30;4.80;;;;;;;21.76;86.72;100545.38;5086930;28;20074;-67
2023/06/24 05:06:08;;;;;;;6.70;4.47;;;;;;;21.74;85.56;100539.25;5076929;28;20082;-66
2023/06/24 05:08:33;;;;;;;5.65;4.13;;;;;;;21.78;85.51;100542.44;5082172;28;20027;-67
2023/06/24 05:10:59;;;;;;;4.70;4.20;;;;;;;21.75;85.45;100521.00;5081894;28;20028;-66
2023/06/24 05:13:24;;;;;;;6.43;4.32;;;;;;;21.77;84.09;100516.19;5076944;28;20036;-66
2023/06/24 05:15:50;;;;;;;4.57;3.88;;;;;;;21.74;84.58;100543.91;5076706;28;20024;-66
2023/06/24 05:18:15;;;;;;;5.78;4.68;;;;;;;21.73;84.81;100531.31;5066281;28;20036;-67
2023/06/24 05:20:40;;;;;;;5.90;4.20;;;;;;;21.71;84.23;100528.75;5065747;28;20074;-65
2023/06/24 05:23:06;;;;;;;4.55;3.70;;;;;;;21.67;84.97;100534.81;5079963;28;20459;-67
2023/06/24 05:25:32;;;;;;;8.43;4.30;;;;;;;21.66;85.29;100539.41;5080414;28;20070;-66
2023/06/24 05:27:57;;;;;;;5.68;4.13;;;;;;;21.69;85.78;100543.63;5088389;28;20394;-67
2023/06/24 05:30:23;;;;;;;7.63;4.03;;;;;;;21.68;85.92;100545.53;5079258;28;20025;-67
2023/06/24 05:32:48;;;;;;;5.43;4.22;;;;;;;21.69;85.95;100546.34;5077390;28;20017;-67
2023/06/24 05:35:14;;;;;;;4.57;4.07;;;;;;;21.61;86.25;100536.41;5073093;28;20403;-66
2023/06/24 05:37:39;;;;;;;4.90;4.20;;;;;;;21.73;85.75;100553.97;5055687;28;20028;-67
2023/06/24 05:40:06;;;;;;;4.03;3.47;;;;;;;21.79;85.15;100547.72;5088504;28;20413;-67
2023/06/24 05:42:32;;;;;;;5.07;3.80;;;;;;;21.83;85.22;100559.09;5087979;28;20069;-67
2023/06/24 05:44:57;;;;;;;5.60;3.75;;;;;;;21.86;84.71;100558.69;5086663;28;20031;-66
2023/06/24 05:47:22;;;;;;;5.97;3.78;;;;;;;21.91;83.61;100562.50;5077922;28;20040;-67
2023/06/24 05:49:48;;;;;;;5.72;4.15;;;;;;;21.93;82.95;100562.31;5073434;28;20032;-66
2023/06/24 05:52:13;;;;;;;4.60;4.20;;;;;;;21.91;83.42;100564.38;5071883;28;20025;-67
2023/06/24 05:54:39;;;;;;;5.47;3.38;;;;;;;21.88;83.58;100562.91;5070487;28;20031;-67
2023/06/24 05:57:07;;;;;;;9.18;3.47;;;;;;;22.00;82.54;100576.81;5070368;28;20031;-67
2023/06/24 05:59:33;;;;;;;7.88;3.83;;;;;;;22.06;82.58;100584.22;5083918;28;20150;-67
2023/06/24 06:02:01;;;;;;;3.92;3.47;;;;;;;22.08;82.30;100569.31;5087484;28;20036;-68
2023/06/24 06:04:27;;;;;;;4.60;2.85;;;;;;;22.21;82.03;100580.31;5063547;28;20024;-67
2023/06/24 06:06:52;;;;;;;5.75;3.33;;;;;;;22.26;82.00;100576.97;5081734;28;20487;-67
2023/06/24 06:09:17;;;;;;;7.22;3.45;;;;;;;22.44;78.49;100588.16;5075489;28;20081;-68
2023/06/24 06:11:43;;;;;;;3.70;2.80;;;;;;;22.44;78.63;100579.97;5067355;28;20107;-68
2023/06/24 06:14:08;;;;;;;4.18;2.78;;;;;;;22.44;78.77;100577.22;5062901;28;20051;-66
2023/06/24 06:16:34;;;;;;;5.60;3.67;;;;;;;22.54;78.20;100569.53;5076870;28;20034;-66
2023/06/24 06:18:59;;;;;;;3.42;2.90;;;;;;;22.62;78.12;100576.69;5087665;28;20024;-68
2023/06/24 06:21:25;;;;;;;5.13;3.00;;;;;;;22.73;78.22;100578.84;5086791;28;20024;-68
2023/06/24 06:23:50;;;;;;;3.00;2.70;;;;;;;22.83;77.89;100582.84;5079905;28;20510;-68
2023/06/24 06:26:16;;;;;;;6.03;2.92;;;;;;;22.90;76.61;100572.78;5075803;28;20032;-66
2023/06/24 06:28:41;;;;;;;4.65;2.67;;;;;;;22.98;76.46;100569.81;5082208;28;20023;-67
2023/06/24 06:31:07;;;;;;;3.90;2.63;;;;;;;23.14;76.62;100577.63;5048664;28;20111;-67
2023/06/24 06:33:32;;;;;;;2.90;2.58;;;;;;;23.12;74.73;100554.28;5075473;28;20035;-67
2023/06/24 06:35:58;;;;;;;4.97;2.78;;;;;;;23.28;72.86;100553.91;5082705;28;20047;-67
2023/06/24 06:38:24;;;;;;;4.07;2.60;;;;;;;23.34;72.97;100561.25;5040837;28;20129;-70
2023/06/24 06:40:49;;;;;;;3.47;2.53;;;;;;;23.34;73.54;100547.59;5078045;28;20469;-69
2023/06/24 06:43:15;;;;;;;5.20;2.30;;;;;;;23.43;72.90;100544.41;5071873;28;20043;-69
2023/06/24 06:45:40;;;;;;;2.45;2.20;;;;;;;23.45;72.38;100546.94;5071624;28;20024;-69
2023/06/24 06:48:09;;;;;;;3.90;2.72;;;;;;;23.45;71.94;100546.94;5077516;28;20678;-69
2023/06/24 06:50:34;;;;;;;3.22;2.25;;;;;;;23.47;71.64;100562.09;5082359;28;20035;-69
2023/06/24 06:53:00;;;;;;;7.70;2.22;;;;;;;23.48;71.46;100557.47;5071666;28;20040;-69
2023/06/24 06:55:26;;;;;;;7.70;2.05;;;;;;;23.39;70.95;100537.66;5074205;28;20640;-69
2023/06/24 06:57:52;;;;;;;2.97;2.17;;;;;;;23.50;71.48;100566.28;5072758;28;20045;-69
2023/06/24 07:00:18;;;;;;;2.00;1.80;;;;;;;23.57;71.58;100557.00;5086038;28;20416;-69
2023/06/24 07:02:43;;;;;;;4.18;1.67;;;;;;;23.63;71.41;100550.69;5067259;28;20028;-70
2023/06/24 07:05:09;;;;;;;1.83;1.73;;;;;;;23.72;70.52;100537.59;5079792;28;20096;-69
2023/06/24 07:07:39;;;;;;;1.92;1.73;;;;;;;23.84;69.68;100546.84;5071057;28;20067;-69
2023/06/24 07:10:05;;;;;;;1.95;1.80;;;;;;;23.90;70.03;100546.81;5065473;28;20476;-70
2023/06/24 07:12:31;;;;;;;3.28;1.95;;;;;;;23.96;69.61;100540.50;5065270;28;20369;-69
2023/06/24 07:14:56;;;;;;;5.07;2.03;;;;;;;23.85;69.38;100521.97;5073045;28;20051;-69
2023/06/24 07:17:22;;;;;;;2.63;1.83;;;;;;;23.95;68.06;100527.03;5067552;28;20914;-70
2023/06/24 07:19:48;;;;;;;3.90;1.65;;;;;;;24.06;66.61;100551.88;5064011;28;20049;-69
2023/06/24 07:22:16;;;;;;;2.83;1.50;;;;;;;24.11;66.75;100548.47;5073241;28;20111;-69
2023/06/24 07:24:42;;;;;;;4.72;1.40;;;;;;;24.04;67.06;100545.78;5078155;28;20048;-69
2023/06/24 07:27:07;;;;;;;3.15;1.52;;;;;;;24.06;66.62;100548.31;5063475;28;20032;-69
2023/06/24 07:29:33;;;;;;;1.45;1.33;;;;;;;24.05;65.76;100549.34;5072706;28;20080;-68
2023/06/24 07:31:58;;;;;;;2.58;1.20;;;;;;;24.07;66.66;100548.09;5076184;28;20039;-69
2023/06/24 07:34:24;;;;;;;1.92;1.17;;;;;;;24.11;67.43;100562.19;5070896;28;20059;-69
2023/06/24 07:36:50;;;;;;;3.05;1.45;;;;;;;24.21;68.53;100546.13;5071045;28;20032;-69
2023/06/24 07:39:16;;;;;;;1.40;1.30;;;;;;;24.30;68.09;100536.59;5067223;28;20093;-69
2023/06/24 07:41:42;;;;;;;1.92;1.30;;;;;;;24.46;67.39;100547.06;5070791;28;20039;-69
2023/06/24 07:44:08;;;;;;;2.35;1.60;;;;;;;24.58;66.56;100561.78;5075670;28;20028;-69
2023/06/24 07:46:33;;;;;;;2.65;1.50;;;;;;;24.61;66.16;100564.09;5054019;28;20036;-69
2023/06/24 07:48:59;;;;;;;1.52;1.42;;;;;;;24.63;65.73;100558.38;5076153;28;20176;-69
2023/06/24 07:51:24;;;;;;;3.08;1.40;;;;;;;24.83;64.60;100564.63;5069582;28;20055;-69
2023/06/24 07:53:50;;;;;;;1.77;1.30;;;;;;;24.81;65.02;100562.09;5074286;28;20407;-69
2023/06/24 07:56:15;;;;;;;1.88;1.23;;;;;;;24.89;65.12;100577.47;5081363;28;20044;-70
2023/06/24 07:58:41;;;;;;;3.88;1.40;;;;;;;24.92;62.92;100564.13;5081064;28;20024;-69
2023/06/24 08:01:06;;;;;;;1.52;1.42;;;;;;;24.87;63.37;100563.97;5060491;28;20028;-70
2023/06/24 08:03:32;;;;;;;1.60;1.30;;;;;;;24.94;63.14;100577.63;5082474;28;20066;-69
2023/06/24 08:05:57;;;;;;;1.20;1.10;;;;;;;25.04;62.35;100583.47;5070648;28;20044;-69
2023/06/24 08:08:22;;;;;;;4.80;1.50;;;;;;;24.96;62.71;100565.38;5077828;28;20567;-69
2023/06/24 08:10:48;;;;;;;2.65;1.25;;;;;;;25.00;63.50;100557.53;5083042;28;20560;-70
2023/06/24 08:13:13;;;;;;;2.50;0.82;;;;;;;25.05;64.08;100574.19;5060671;28;20035;-69
2023/06/24 08:15:39;;;;;;;3.80;1.27;;;;;;;25.18;63.49;100577.66;5073536;28;20028;-70
2023/06/24 08:18:05;;;;;;;3.30;1.40;;;;;;;25.27;63.53;100579.06;5083444;28;20060;-70
2023/06/24 08:20:30;;;;;;;1.75;1.00;;;;;;;25.37;63.36;100584.09;5062558;28;20028;-69
2023/06/24 08:22:55;;;;;;;3.53;1.20;;;;;;;25.36;62.58;100586.00;5058850;28;20040;-69
2023/06/24 08:25:21;;;;;;;1.60;1.50;;;;;;;25.42;61.48;100589.75;5075507;28;20048;-69
2023/06/24 08:27:46;;;;;;;1.30;1.20;;;;;;;25.40;61.86;100600.13;5062290;28;20044;-70
2023/06/24 08:30:14;;;;;;;2.88;1.25;;;;;;;25.29;62.51;100576.09;5075370;28;20043;-70
2023/06/24 08:32:40;;;;;;;1.50;1.27;;;;;;;25.39;62.12;100598.44;5073947;28;20055;-69
2023/06/24 08:35:06;;;;;;;1.52;1.08;;;;;;;25.36;62.52;100598.88;5077419;28;20378;-69
2023/06/24 08:37:32;;;;;;;2.83;1.02;;;;;;;25.31;62.66;100591.31;5078595;28;20495;-69
2023/06/24 08:39:57;;;;;;;1.00;0.90;;;;;;;25.31;62.85;100590.50;5074245;28;20032;-69
2023/06/24 08:42:23;;;;;;;1.88;1.20;;;;;;;25.29;63.59;100595.31;5070078;28;20116;-69
2023/06/24 08:44:48;;;;;;;1.10;1.00;;;;;;;25.32;63.58;100598.50;5077079;28;20028;-69
2023/06/24 08:47:16;;;;;;;2.17;1.13;;;;;;;25.40;63.35;100600.97;5074099;28;20028;-70
2023/06/24 08:49:53;;;;;;;3.22;1.23;;;;;;;25.43;63.87;100602.41;5084668;28;20032;-70
2023/06/24 08:52:20;;;;;;;1.95;1.00;;;;;;;25.47;64.11;100589.94;5086353;28;20061;-69
2023/06/24 08:54:50;;;;;;;4.43;1.38;;;;;;;25.43;63.63;100578.53;5070327;28;20036;-70
2023/06/24 08:57:15;;;;;;;1.13;1.02;;;;;;;25.52;62.88;100585.44;5074707;28;20109;-69
2023/06/24 08:59:42;;;;;;;1.75;1.23;;;;;;;25.55;63.09;100581.41;5080396;28;20110;-69
2023/06/24 09:02:08;;;;;;;1.17;1.08;;;;;;;25.58;63.17;100590.03;5087803;28;20028;-70
2023/06/24 09:04:34;;;;;;;1.58;1.20;;;;;;;25.61;61.31;100572.25;5075442;28;20068;-69
2023/06/24 09:07:00;;;;;;;1.55;1.35;;;;;;;25.77;60.83;100577.19;5053290;28;20534;-69
2023/06/24 09:09:25;;;;;;;4.72;1.50;;;;;;;25.81;61.44;100592.13;5085673;28;20119;-69
2023/06/24 09:11:56;;;;;;;2.88;1.27;;;;;;;25.64;62.29;100569.91;5064991;28;20089;-69
2023/06/24 09:14:24;;;;;;;2.97;1.33;;;;;;;25.77;62.24;100577.19;5056713;28;20040;-69
2023/06/24 09:17:01;;;;;;;2.22;1.38;;;;;;;25.79;62.01;100583.31;5075142;28;20039;-70
2023/06/24 09:19:29;;;;;;;1.02;0.93;;;;;;;25.77;61.87;100579.94;5076732;28;20040;-70
2023/06/24 09:22:04;;;;;;;4.35;1.40;;;;;;;25.84;60.84;100583.44;5078895;28;20051;-69
2023/06/24 09:24:34;;;;;;;2.38;1.27;;;;;;;25.88;60.23;100599.25;5075917;28;20105;-71
2023/06/24 09:27:03;;;;;;;1.67;1.27;;;;;;;25.83;59.95;100579.03;5071254;28;20048;-74
2023/06/24 09:29:32;;;;;;;2.28;1.10;;;;;;;25.85;60.26;100588.72;5071951;28;20044;-71
2023/06/24 09:31:59;;;;;;;3.15;1.17;;;;;;;25.85;59.92;100588.72;5077923;28;20040;-68
2023/06/24 09:34:26;;;;;;;3.05;1.30;;;;;;;25.87;60.25;100594.84;5054169;28;20048;-70
2023/06/24 09:36:53;;;;;;;1.48;1.38;;;;;;;25.85;59.01;100583.22;5074242;28;20518;-68
2023/06/24 09:39:21;;;;;;;1.55;1.10;;;;;;;25.91;58.18;100582.31;5075875;28;20019;-68
2023/06/24 09:41:52;;;;;;;1.42;1.33;;;;;;;25.86;57.09;100560.16;5071899;28;20481;-69
2023/06/24 09:44:21;;;;;;;1.30;1.20;;;;;;;26.01;57.63;100584.56;5077141;28;20024;-70
2023/06/24 09:46:47;;;;;;;5.15;1.58;;;;;;;25.99;57.72;100584.78;5059573;28;20036;-70
2023/06/24 09:49:12;;;;;;;3.33;1.70;;;;;;;26.00;57.63;100588.38;5069938;28;20086;-70
2023/06/24 09:51:40;;;;;;;1.90;1.40;;;;;;;26.05;57.85;100583.88;5075576;28;20613;-69
2023/06/24 09:54:06;;;;;;;3.75;1.48;;;;;;;26.07;58.19;100576.25;5081097;28;20051;-70
2023/06/24 09:56:53;;;;;;;1.30;1.20;;;;;;;26.09;59.13;100578.78;5077975;28;20101;-70
2023/06/24 09:59:20;;;;;;;3.03;1.50;;;;;;;26.13;58.31;100574.47;5075764;28;20532;-70
2023/06/24 10:01:47;;;;;;;4.63;1.08;;;;;;;26.10;58.79;100569.44;5074981;28;20484;-70
2023/06/24 10:04:17;;;;;;;2.85;1.27;;;;;;;26.12;59.47;100576.38;5074934;28;20029;-70
2023/06/24 10:06:42;;;;;;;1.92;1.27;;;;;;;26.18;59.05;100580.16;5055254;28;21961;-69
2023/06/24 10:09:13;;;;;;;2.63;1.60;;;;;;;26.19;58.75;100565.31;5074348;28;20081;-71
2023/06/24 10:11:39;;;;;;;1.52;1.17;;;;;;;26.26;58.94;100568.81;5050947;28;20043;-69
2023/06/24 10:14:05;;;;;;;1.30;1.20;;;;;;;26.19;58.20;100557.06;5069855;28;20036;-68
2023/06/24 10:16:31;;;;;;;2.40;1.33;;;;;;;26.29;58.37;100563.72;5072918;28;20818;-69
2023/06/24 10:19:03;;;;;;;1.88;1.67;;;;;;;26.37;58.30;100585.41;5071003;28;20046;-70
2023/06/24 10:21:51;;;;;;;2.85;1.60;;;;;;;26.30;57.57;100576.38;5071915;28;20128;-69
2023/06/24 10:24:34;;;;;;;1.83;1.40;;;;;;;26.40;57.20;100589.59;5055518;28;20036;-69
2023/06/24 10:27:03;;;;;;;1.92;1.45;;;;;;;26.41;56.71;100583.84;5074321;28;20048;-70
2023/06/24 10:29:34;;;;;;;1.73;1.50;;;;;;;26.44;56.20;100580.66;5076099;28;20028;-70
2023/06/24 10:32:05;;;;;;;1.63;1.30;;;;;;;26.46;56.62;100581.25;5077556;28;20051;-70
2023/06/24 10:34:37;;;;;;;4.65;2.00;;;;;;;26.48;57.12;100575.53;5069753;28;20046;-69
2023/06/24 10:37:16;;;;;;;3.10;1.65;;;;;;;26.54;57.28;100569.09;5071322;28;20133;-70
2023/06/24 10:39:56;;;;;;;1.70;1.60;;;;;;;26.56;56.59;100566.13;5070767;28;20020;-69
2023/06/24 10:42:53;;;;;;;2.17;1.83;;;;;;;26.58;56.51;100562.06;5075915;28;20040;-69
2023/06/24 10:45:20;;;;;;;2.97;1.73;;;;;;;26.56;56.43;100563.38;5055748;28;20020;-70
2023/06/24 10:47:52;;;;;;;1.73;1.50;;;;;;;26.59;56.66;100557.41;5076212;28;20051;-70
2023/06/24 10:50:23;;;;;;;3.88;1.40;;;;;;;26.61;56.97;100555.25;5071220;28;22087;-70
2023/06/24 10:52:53;;;;;;;2.67;1.67;;;;;;;26.58;57.09;100529.03;5056511;28;20055;-70
2023/06/24 10:55:19;;;;;;;1.52;1.40;;;;;;;26.68;57.49;100545.00;5070257;28;20414;-70
2023/06/24 10:57:45;;;;;;;1.55;1.45;;;;;;;26.68;58.61;100551.38;5076399;28;20052;-68
2023/06/24 11:00:12;;;;;;;2.42;1.35;;;;;;;26.64;58.30;100538.31;5073685;28;20024;-70
2023/06/24 11:02:37;;;;;;;2.03;1.63;;;;;;;26.74;57.42;100547.69;5070886;28;20419;-70
2023/06/24 11:05:05;;;;;;;2.55;1.60;;;;;;;26.80;56.44;100534.88;5054241;28;20032;-70
2023/06/24 11:07:34;;;;;;;1.63;1.38;;;;;;;26.88;56.50;100538.16;5074169;28;20490;-70
2023/06/24 11:10:05;;;;;;;1.90;1.70;;;;;;;26.89;56.86;100544.50;5070282;28;20559;-70
2023/06/24 11:12:33;;;;;;;3.63;1.83;;;;;;;26.80;56.81;100538.50;5074647;28;20039;-70
2023/06/24 11:15:03;;;;;;;1.83;1.73;;;;;;;26.86;56.52;100539.47;5072797;28;20062;-70
2023/06/24 11:17:28;;;;;;;2.47;1.25;;;;;;;26.70;56.21;100504.34;5076783;28;20039;-70
2023/06/24 11:19:55;;;;;;;1.45;1.30;;;;;;;26.82;56.45;100508.78;5077153;28;20411;-70
2023/06/24 11:22:21;;;;;;;2.10;1.60;;;;;;;26.83;56.59;100507.75;5078226;28;20100;-70
2023/06/24 11:24:47;;;;;;;1.40;1.30;;;;;;;26.72;56.50;100488.44;5079057;28;20044;-71